sensor_id;sensor_type;location;lat;lon;timestamp;temperature;humidity
51007;DHT22;37034;47.886;-3.904;2022-07-30T00:01:58;22.30;63.90
51007;DHT22;37034;47.886;-3.904;2022-07-30T00:04:23;22.30;64.30
51007;DHT22;37034;47.886;-3.904;2022-07-30T00:06:49;22.30;64.70
51007;DHT22;37034;47.886;-3.904;2022-07-30T00:09:15;22.30;64.20
51007;DHT22;37034;47.886;-3.904;2022-07-30T00:11:41;22.30;64.30
51007;DHT22;37034;47.886;-3.904;2022-07-30T00:14:07;22.30;64.10
51007;DHT22;37034;47.886;-3.904;2022-07-30T00:16:32;22.30;64.60
51007;DHT22;37034;47.886;-3.904;2022-07-30T00:18:58;22.30;64.40
51007;DHT22;37034;47.886;-3.904;2022-07-30T00:21:24;22.30;64.10
51007;DHT22;37034;47.886;-3.904;2022-07-30T00:23:49;22.30;64.70
51007;DHT22;37034;47.886;-3.904;2022-07-30T00:26:15;22.30;64.70
51007;DHT22;37034;47.886;-3.904;2022-07-30T00:28:41;22.20;64.50
51007;DHT22;37034;47.886;-3.904;2022-07-30T00:31:06;22.20;64.60
51007;DHT22;37034;47.886;-3.904;2022-07-30T00:33:32;22.20;64.80
51007;DHT22;37034;47.886;-3.904;2022-07-30T00:35:58;22.20;64.70
51007;DHT22;37034;47.886;-3.904;2022-07-30T00:38:23;22.10;64.60
51007;DHT22;37034;47.886;-3.904;2022-07-30T00:40:49;22.10;64.90
51007;DHT22;37034;47.886;-3.904;2022-07-30T00:43:16;22.00;65.00
51007;DHT22;37034;47.886;-3.904;2022-07-30T00:45:43;21.90;65.00
51007;DHT22;37034;47.886;-3.904;2022-07-30T00:48:10;21.90;65.40
51007;DHT22;37034;47.886;-3.904;2022-07-30T00:50:36;21.80;65.50
51007;DHT22;37034;47.886;-3.904;2022-07-30T00:53:02;21.70;65.90
51007;DHT22;37034;47.886;-3.904;2022-07-30T00:55:28;21.70;66.40
51007;DHT22;37034;47.886;-3.904;2022-07-30T00:57:54;21.70;66.40
51007;DHT22;37034;47.886;-3.904;2022-07-30T01:00:19;21.70;66.40
51007;DHT22;37034;47.886;-3.904;2022-07-30T01:02:45;21.70;66.30
51007;DHT22;37034;47.886;-3.904;2022-07-30T01:05:11;21.70;66.30
51007;DHT22;37034;47.886;-3.904;2022-07-30T01:07:37;21.70;66.60
51007;DHT22;37034;47.886;-3.904;2022-07-30T01:10:05;21.60;66.60
51007;DHT22;37034;47.886;-3.904;2022-07-30T01:12:31;21.60;66.60
51007;DHT22;37034;47.886;-3.904;2022-07-30T01:14:58;21.60;67.10
51007;DHT22;37034;47.886;-3.904;2022-07-30T01:17:25;21.50;67.10
51007;DHT22;37034;47.886;-3.904;2022-07-30T01:19:53;21.50;66.90
51007;DHT22;37034;47.886;-3.904;2022-07-30T01:28:04;21.50;67.70
51007;DHT22;37034;47.886;-3.904;2022-07-30T01:30:34;21.50;67.40
51007;DHT22;37034;47.886;-3.904;2022-07-30T01:33:03;21.40;67.30
51007;DHT22;37034;47.886;-3.904;2022-07-30T01:35:31;21.40;67.30
51007;DHT22;37034;47.886;-3.904;2022-07-30T01:37:58;21.30;67.60
51007;DHT22;37034;47.886;-3.904;2022-07-30T01:40:27;21.30;67.70
51007;DHT22;37034;47.886;-3.904;2022-07-30T01:42:54;21.30;68.00
51007;DHT22;37034;47.886;-3.904;2022-07-30T01:45:23;21.20;68.20
51007;DHT22;37034;47.886;-3.904;2022-07-30T01:47:52;21.30;68.60
51007;DHT22;37034;47.886;-3.904;2022-07-30T01:50:19;21.20;68.80
51007;DHT22;37034;47.886;-3.904;2022-07-30T01:52:48;21.20;69.20
51007;DHT22;37034;47.886;-3.904;2022-07-30T01:55:17;21.20;68.90
51007;DHT22;37034;47.886;-3.904;2022-07-30T01:57:46;21.20;69.10
51007;DHT22;37034;47.886;-3.904;2022-07-30T02:00:12;21.20;69.50
51007;DHT22;37034;47.886;-3.904;2022-07-30T02:02:38;21.20;69.10
51007;DHT22;37034;47.886;-3.904;2022-07-30T02:05:06;21.20;69.30
51007;DHT22;37034;47.886;-3.904;2022-07-30T02:10:05;21.20;69.10
51007;DHT22;37034;47.886;-3.904;2022-07-30T02:12:33;21.20;69.10
51007;DHT22;37034;47.886;-3.904;2022-07-30T02:15:11;21.20;69.50
51007;DHT22;37034;47.886;-3.904;2022-07-30T02:17:48;21.20;69.90
51007;DHT22;37034;47.886;-3.904;2022-07-30T02:20:18;21.20;69.50
51007;DHT22;37034;47.886;-3.904;2022-07-30T02:22:46;21.20;69.50
51007;DHT22;37034;47.886;-3.904;2022-07-30T02:25:17;21.20;69.20
51007;DHT22;37034;47.886;-3.904;2022-07-30T02:27:49;21.20;69.10
51007;DHT22;37034;47.886;-3.904;2022-07-30T02:30:16;21.20;70.00
51007;DHT22;37034;47.886;-3.904;2022-07-30T02:32:43;21.10;69.60
51007;DHT22;37034;47.886;-3.904;2022-07-30T02:35:20;21.10;69.70
51007;DHT22;37034;47.886;-3.904;2022-07-30T02:37:48;21.10;70.10
51007;DHT22;37034;47.886;-3.904;2022-07-30T02:40:17;21.10;69.60
51007;DHT22;37034;47.886;-3.904;2022-07-30T02:42:46;21.10;70.10
51007;DHT22;37034;47.886;-3.904;2022-07-30T02:45:16;21.10;70.20
51007;DHT22;37034;47.886;-3.904;2022-07-30T02:47:43;21.10;70.00
51007;DHT22;37034;47.886;-3.904;2022-07-30T02:50:10;21.10;70.00
51007;DHT22;37034;47.886;-3.904;2022-07-30T02:52:39;21.10;70.00
51007;DHT22;37034;47.886;-3.904;2022-07-30T02:55:07;21.10;69.80
51007;DHT22;37034;47.886;-3.904;2022-07-30T02:57:34;21.10;69.50
51007;DHT22;37034;47.886;-3.904;2022-07-30T03:00:00;21.00;70.10
51007;DHT22;37034;47.886;-3.904;2022-07-30T03:02:26;21.00;71.20
51007;DHT22;37034;47.886;-3.904;2022-07-30T03:04:53;21.10;70.10
51007;DHT22;37034;47.886;-3.904;2022-07-30T03:07:20;21.00;70.50
51007;DHT22;37034;47.886;-3.904;2022-07-30T03:09:46;21.00;70.30
51007;DHT22;37034;47.886;-3.904;2022-07-30T03:12:13;20.90;70.40
51007;DHT22;37034;47.886;-3.904;2022-07-30T03:14:40;20.90;70.60
51007;DHT22;37034;47.886;-3.904;2022-07-30T03:17:06;20.80;70.70
51007;DHT22;37034;47.886;-3.904;2022-07-30T03:19:36;20.80;70.90
51007;DHT22;37034;47.886;-3.904;2022-07-30T03:22:03;20.90;70.90
51007;DHT22;37034;47.886;-3.904;2022-07-30T03:24:31;20.80;71.00
51007;DHT22;37034;47.886;-3.904;2022-07-30T03:26:59;20.80;71.30
51007;DHT22;37034;47.886;-3.904;2022-07-30T03:29:28;20.70;71.60
51007;DHT22;37034;47.886;-3.904;2022-07-30T03:31:55;20.70;71.40
51007;DHT22;37034;47.886;-3.904;2022-07-30T03:34:22;20.70;71.50
51007;DHT22;37034;47.886;-3.904;2022-07-30T03:36:49;20.70;71.40
51007;DHT22;37034;47.886;-3.904;2022-07-30T03:39:15;20.70;71.70
51007;DHT22;37034;47.886;-3.904;2022-07-30T03:41:43;20.70;72.00
51007;DHT22;37034;47.886;-3.904;2022-07-30T03:44:09;20.70;71.90
51007;DHT22;37034;47.886;-3.904;2022-07-30T03:46:36;20.70;71.70
51007;DHT22;37034;47.886;-3.904;2022-07-30T03:49:03;20.70;71.60
51007;DHT22;37034;47.886;-3.904;2022-07-30T03:51:31;20.70;71.50
51007;DHT22;37034;47.886;-3.904;2022-07-30T03:53:57;20.70;71.30
51007;DHT22;37034;47.886;-3.904;2022-07-30T03:56:23;20.60;71.50
51007;DHT22;37034;47.886;-3.904;2022-07-30T03:58:49;20.60;71.60
51007;DHT22;37034;47.886;-3.904;2022-07-30T04:01:15;20.60;72.10
51007;DHT22;37034;47.886;-3.904;2022-07-30T04:03:41;20.60;72.10
51007;DHT22;37034;47.886;-3.904;2022-07-30T04:06:07;20.60;72.00
51007;DHT22;37034;47.886;-3.904;2022-07-30T04:08:33;20.60;72.00
51007;DHT22;37034;47.886;-3.904;2022-07-30T04:10:58;20.50;72.50
51007;DHT22;37034;47.886;-3.904;2022-07-30T04:13:24;20.50;72.30
51007;DHT22;37034;47.886;-3.904;2022-07-30T04:18:23;20.50;73.20
51007;DHT22;37034;47.886;-3.904;2022-07-30T04:20:51;20.60;73.20
51007;DHT22;37034;47.886;-3.904;2022-07-30T04:23:18;20.50;72.70
51007;DHT22;37034;47.886;-3.904;2022-07-30T04:25:45;20.50;72.90
51007;DHT22;37034;47.886;-3.904;2022-07-30T04:28:11;20.50;73.00
51007;DHT22;37034;47.886;-3.904;2022-07-30T04:30:39;20.40;73.20
51007;DHT22;37034;47.886;-3.904;2022-07-30T04:33:06;20.40;73.20
51007;DHT22;37034;47.886;-3.904;2022-07-30T04:35:33;20.40;73.80
51007;DHT22;37034;47.886;-3.904;2022-07-30T04:37:59;20.40;74.10
51007;DHT22;37034;47.886;-3.904;2022-07-30T04:40:27;20.40;74.10
51007;DHT22;37034;47.886;-3.904;2022-07-30T04:42:54;20.40;73.70
51007;DHT22;37034;47.886;-3.904;2022-07-30T04:45:20;20.40;73.50
51007;DHT22;37034;47.886;-3.904;2022-07-30T04:47:46;20.40;73.80
51007;DHT22;37034;47.886;-3.904;2022-07-30T04:50:13;20.40;73.90
51007;DHT22;37034;47.886;-3.904;2022-07-30T04:52:40;20.40;73.70
51007;DHT22;37034;47.886;-3.904;2022-07-30T04:55:08;20.40;74.10
51007;DHT22;37034;47.886;-3.904;2022-07-30T04:57:36;20.40;73.80
51007;DHT22;37034;47.886;-3.904;2022-07-30T05:00:04;20.30;74.20
51007;DHT22;37034;47.886;-3.904;2022-07-30T05:02:31;20.30;74.20
51007;DHT22;37034;47.886;-3.904;2022-07-30T05:04:58;20.30;74.60
51007;DHT22;37034;47.886;-3.904;2022-07-30T05:07:25;20.30;74.80
51007;DHT22;37034;47.886;-3.904;2022-07-30T05:09:51;20.40;74.70
51007;DHT22;37034;47.886;-3.904;2022-07-30T05:12:17;20.40;74.80
51007;DHT22;37034;47.886;-3.904;2022-07-30T05:14:43;20.40;74.90
51007;DHT22;37034;47.886;-3.904;2022-07-30T05:17:08;20.40;74.70
51007;DHT22;37034;47.886;-3.904;2022-07-30T05:19:34;20.50;74.80
51007;DHT22;37034;47.886;-3.904;2022-07-30T05:22:00;20.50;74.70
51007;DHT22;37034;47.886;-3.904;2022-07-30T05:24:26;20.50;74.60
51007;DHT22;37034;47.886;-3.904;2022-07-30T05:26:52;20.50;75.60
51007;DHT22;37034;47.886;-3.904;2022-07-30T05:29:17;20.50;75.70
51007;DHT22;37034;47.886;-3.904;2022-07-30T05:31:43;20.50;75.70
51007;DHT22;37034;47.886;-3.904;2022-07-30T05:34:09;20.60;75.70
51007;DHT22;37034;47.886;-3.904;2022-07-30T05:36:34;20.60;75.50
51007;DHT22;37034;47.886;-3.904;2022-07-30T05:39:00;20.70;76.00
51007;DHT22;37034;47.886;-3.904;2022-07-30T05:41:26;20.70;75.90
51007;DHT22;37034;47.886;-3.904;2022-07-30T05:43:52;20.70;76.00
51007;DHT22;37034;47.886;-3.904;2022-07-30T05:46:18;20.70;76.30
51007;DHT22;37034;47.886;-3.904;2022-07-30T05:48:44;20.80;76.30
51007;DHT22;37034;47.886;-3.904;2022-07-30T05:51:09;20.80;76.30
51007;DHT22;37034;47.886;-3.904;2022-07-30T05:53:35;20.80;76.50
51007;DHT22;37034;47.886;-3.904;2022-07-30T05:56:01;20.80;76.60
51007;DHT22;37034;47.886;-3.904;2022-07-30T05:58:26;20.90;76.80
51007;DHT22;37034;47.886;-3.904;2022-07-30T06:00:52;20.80;77.00
51007;DHT22;37034;47.886;-3.904;2022-07-30T06:03:18;20.80;77.10
51007;DHT22;37034;47.886;-3.904;2022-07-30T06:05:43;20.80;77.70
51007;DHT22;37034;47.886;-3.904;2022-07-30T06:08:09;20.80;77.90
51007;DHT22;37034;47.886;-3.904;2022-07-30T06:10:35;20.90;77.80
51007;DHT22;37034;47.886;-3.904;2022-07-30T06:13:00;21.00;78.00
51007;DHT22;37034;47.886;-3.904;2022-07-30T06:15:26;21.10;77.60
51007;DHT22;37034;47.886;-3.904;2022-07-30T06:17:52;21.20;77.80
51007;DHT22;37034;47.886;-3.904;2022-07-30T06:20:18;21.20;78.00
51007;DHT22;37034;47.886;-3.904;2022-07-30T06:22:44;21.30;78.70
51007;DHT22;37034;47.886;-3.904;2022-07-30T06:25:10;21.30;78.30
51007;DHT22;37034;47.886;-3.904;2022-07-30T06:27:36;21.30;78.70
51007;DHT22;37034;47.886;-3.904;2022-07-30T06:30:05;21.30;78.70
51007;DHT22;37034;47.886;-3.904;2022-07-30T06:32:31;21.40;79.50
51007;DHT22;37034;47.886;-3.904;2022-07-30T06:34:57;21.40;79.40
51007;DHT22;37034;47.886;-3.904;2022-07-30T06:37:22;21.50;79.30
51007;DHT22;37034;47.886;-3.904;2022-07-30T06:39:48;21.70;79.70
51007;DHT22;37034;47.886;-3.904;2022-07-30T06:42:14;21.80;79.30
51007;DHT22;37034;47.886;-3.904;2022-07-30T06:44:40;21.90;79.00
51007;DHT22;37034;47.886;-3.904;2022-07-30T06:47:06;22.10;79.00
51007;DHT22;37034;47.886;-3.904;2022-07-30T06:49:33;22.20;78.80
51007;DHT22;37034;47.886;-3.904;2022-07-30T06:51:59;22.30;78.50
51007;DHT22;37034;47.886;-3.904;2022-07-30T06:54:24;22.40;78.50
51007;DHT22;37034;47.886;-3.904;2022-07-30T06:56:50;22.60;78.20
51007;DHT22;37034;47.886;-3.904;2022-07-30T06:59:16;22.80;77.90
51007;DHT22;37034;47.886;-3.904;2022-07-30T07:01:41;22.90;77.50
51007;DHT22;37034;47.886;-3.904;2022-07-30T07:04:07;22.90;76.10
51007;DHT22;37034;47.886;-3.904;2022-07-30T07:06:33;22.90;77.10
51007;DHT22;37034;47.886;-3.904;2022-07-30T07:08:59;23.00;77.20
51007;DHT22;37034;47.886;-3.904;2022-07-30T07:11:24;23.10;76.90
51007;DHT22;37034;47.886;-3.904;2022-07-30T07:13:50;23.30;76.40
51007;DHT22;37034;47.886;-3.904;2022-07-30T07:16:16;23.40;76.40
51007;DHT22;37034;47.886;-3.904;2022-07-30T07:18:46;23.50;76.00
51007;DHT22;37034;47.886;-3.904;2022-07-30T07:21:13;23.60;75.00
51007;DHT22;37034;47.886;-3.904;2022-07-30T07:23:38;23.60;75.00
51007;DHT22;37034;47.886;-3.904;2022-07-30T07:26:04;23.50;74.50
51007;DHT22;37034;47.886;-3.904;2022-07-30T07:28:30;23.50;74.90
51007;DHT22;37034;47.886;-3.904;2022-07-30T07:30:55;23.50;74.50
51007;DHT22;37034;47.886;-3.904;2022-07-30T07:33:21;23.60;74.70
51007;DHT22;37034;47.886;-3.904;2022-07-30T07:35:47;23.70;74.30
51007;DHT22;37034;47.886;-3.904;2022-07-30T07:38:12;23.70;73.30
51007;DHT22;37034;47.886;-3.904;2022-07-30T07:40:38;23.70;73.90
51007;DHT22;37034;47.886;-3.904;2022-07-30T07:43:04;23.60;73.60
51007;DHT22;37034;47.886;-3.904;2022-07-30T07:45:30;23.60;73.60
51007;DHT22;37034;47.886;-3.904;2022-07-30T07:47:55;23.60;73.60
51007;DHT22;37034;47.886;-3.904;2022-07-30T07:50:21;23.80;73.70
51007;DHT22;37034;47.886;-3.904;2022-07-30T07:52:47;23.70;72.70
51007;DHT22;37034;47.886;-3.904;2022-07-30T07:55:13;23.70;73.20
51007;DHT22;37034;47.886;-3.904;2022-07-30T07:57:40;23.70;73.20
51007;DHT22;37034;47.886;-3.904;2022-07-30T08:00:08;23.70;73.90
51007;DHT22;37034;47.886;-3.904;2022-07-30T08:02:34;23.80;73.60
51007;DHT22;37034;47.886;-3.904;2022-07-30T08:05:00;23.90;73.30
51007;DHT22;37034;47.886;-3.904;2022-07-30T08:07:26;24.00;73.20
51007;DHT22;37034;47.886;-3.904;2022-07-30T08:09:51;24.00;72.80
51007;DHT22;37034;47.886;-3.904;2022-07-30T08:12:17;24.10;72.40
51007;DHT22;37034;47.886;-3.904;2022-07-30T08:14:43;24.10;71.80
51007;DHT22;37034;47.886;-3.904;2022-07-30T08:17:08;24.00;72.30
51007;DHT22;37034;47.886;-3.904;2022-07-30T08:19:34;24.00;72.40
51007;DHT22;37034;47.886;-3.904;2022-07-30T08:21:59;24.00;72.80
51007;DHT22;37034;47.886;-3.904;2022-07-30T08:24:25;24.10;71.50
51007;DHT22;37034;47.886;-3.904;2022-07-30T08:26:51;24.20;72.40
51007;DHT22;37034;47.886;-3.904;2022-07-30T08:29:16;24.20;72.10
51007;DHT22;37034;47.886;-3.904;2022-07-30T08:31:42;24.30;72.10
51007;DHT22;37034;47.886;-3.904;2022-07-30T08:34:08;24.50;71.80
51007;DHT22;37034;47.886;-3.904;2022-07-30T08:36:33;24.50;71.30
51007;DHT22;37034;47.886;-3.904;2022-07-30T08:38:59;24.60;71.60
51007;DHT22;37034;47.886;-3.904;2022-07-30T08:41:25;24.50;70.80
51007;DHT22;37034;47.886;-3.904;2022-07-30T08:43:52;24.50;71.90
51007;DHT22;37034;47.886;-3.904;2022-07-30T08:46:23;24.60;71.10
51007;DHT22;37034;47.886;-3.904;2022-07-30T08:48:50;24.50;70.50
51007;DHT22;37034;47.886;-3.904;2022-07-30T08:51:18;24.30;70.80
51007;DHT22;37034;47.886;-3.904;2022-07-30T08:53:44;24.50;71.20
51007;DHT22;37034;47.886;-3.904;2022-07-30T08:56:10;24.60;71.00
51007;DHT22;37034;47.886;-3.904;2022-07-30T08:58:37;24.80;70.90
51007;DHT22;37034;47.886;-3.904;2022-07-30T09:01:04;24.90;70.50
51007;DHT22;37034;47.886;-3.904;2022-07-30T09:03:31;24.80;70.70
51007;DHT22;37034;47.886;-3.904;2022-07-30T09:05:57;24.90;70.60
51007;DHT22;37034;47.886;-3.904;2022-07-30T09:08:24;25.00;70.30
51007;DHT22;37034;47.886;-3.904;2022-07-30T09:10:50;25.30;69.40
51007;DHT22;37034;47.886;-3.904;2022-07-30T09:13:26;25.50;70.00
51007;DHT22;37034;47.886;-3.904;2022-07-30T09:15:53;25.70;69.60
51007;DHT22;37034;47.886;-3.904;2022-07-30T09:18:40;25.80;69.20
51007;DHT22;37034;47.886;-3.904;2022-07-30T09:21:18;25.90;67.60
51007;DHT22;37034;47.886;-3.904;2022-07-30T09:24:03;25.80;67.20
51007;DHT22;37034;47.886;-3.904;2022-07-30T09:26:30;25.80;68.10
51007;DHT22;37034;47.886;-3.904;2022-07-30T09:29:17;25.80;67.20
51007;DHT22;37034;47.886;-3.904;2022-07-30T09:31:59;25.60;68.10
51007;DHT22;37034;47.886;-3.904;2022-07-30T09:34:29;25.70;69.10
51007;DHT22;37034;47.886;-3.904;2022-07-30T09:36:56;25.80;66.80
51007;DHT22;37034;47.886;-3.904;2022-07-30T09:39:33;25.80;67.90
51007;DHT22;37034;47.886;-3.904;2022-07-30T09:42:01;25.90;68.00
51007;DHT22;37034;47.886;-3.904;2022-07-30T09:44:28;25.90;67.30
51007;DHT22;37034;47.886;-3.904;2022-07-30T09:46:55;25.90;68.10
51007;DHT22;37034;47.886;-3.904;2022-07-30T09:49:26;25.90;67.50
51007;DHT22;37034;47.886;-3.904;2022-07-30T09:51:53;25.80;67.50
51007;DHT22;37034;47.886;-3.904;2022-07-30T09:54:19;25.90;68.20
51007;DHT22;37034;47.886;-3.904;2022-07-30T09:56:45;26.00;67.70
51007;DHT22;37034;47.886;-3.904;2022-07-30T09:59:27;26.00;67.70
51007;DHT22;37034;47.886;-3.904;2022-07-30T10:01:54;26.10;67.70
51007;DHT22;37034;47.886;-3.904;2022-07-30T10:04:28;26.00;66.80
51007;DHT22;37034;47.886;-3.904;2022-07-30T10:06:55;26.00;67.30
51007;DHT22;37034;47.886;-3.904;2022-07-30T10:09:31;25.90;67.40
51007;DHT22;37034;47.886;-3.904;2022-07-30T10:11:59;26.00;67.60
51007;DHT22;37034;47.886;-3.904;2022-07-30T10:14:28;25.90;67.80
51007;DHT22;37034;47.886;-3.904;2022-07-30T10:16:54;26.00;68.40
51007;DHT22;37034;47.886;-3.904;2022-07-30T10:19:20;26.00;68.00
51007;DHT22;37034;47.886;-3.904;2022-07-30T10:21:48;25.90;67.50
51007;DHT22;37034;47.886;-3.904;2022-07-30T10:24:16;25.80;67.60
51007;DHT22;37034;47.886;-3.904;2022-07-30T10:26:42;26.00;67.90
51007;DHT22;37034;47.886;-3.904;2022-07-30T10:29:08;25.90;67.10
51007;DHT22;37034;47.886;-3.904;2022-07-30T10:31:34;25.90;68.10
51007;DHT22;37034;47.886;-3.904;2022-07-30T10:34:01;25.90;67.70
51007;DHT22;37034;47.886;-3.904;2022-07-30T10:36:26;26.10;68.50
51007;DHT22;37034;47.886;-3.904;2022-07-30T10:38:53;26.20;66.90
51007;DHT22;37034;47.886;-3.904;2022-07-30T10:41:53;26.20;66.60
51007;DHT22;37034;47.886;-3.904;2022-07-30T10:44:34;26.10;67.10
51007;DHT22;37034;47.886;-3.904;2022-07-30T10:47:07;26.30;67.20
51007;DHT22;37034;47.886;-3.904;2022-07-30T10:49:33;26.30;67.60
51007;DHT22;37034;47.886;-3.904;2022-07-30T10:51:59;26.50;67.80
51007;DHT22;37034;47.886;-3.904;2022-07-30T10:54:42;26.70;67.00
51007;DHT22;37034;47.886;-3.904;2022-07-30T11:02:27;27.10;66.10
51007;DHT22;37034;47.886;-3.904;2022-07-30T11:07:45;27.00;65.40
51007;DHT22;37034;47.886;-3.904;2022-07-30T11:13:02;27.10;65.50
51007;DHT22;37034;47.886;-3.904;2022-07-30T11:18:15;27.30;65.60
51007;DHT22;37034;47.886;-3.904;2022-07-30T11:20:41;27.40;66.10
51007;DHT22;37034;47.886;-3.904;2022-07-30T11:25:53;27.60;65.90
51007;DHT22;37034;47.886;-3.904;2022-07-30T11:28:43;27.80;65.80
51007;DHT22;37034;47.886;-3.904;2022-07-30T11:31:32;27.80;64.70
51007;DHT22;37034;47.886;-3.904;2022-07-30T11:42:32;28.10;64.00
51007;DHT22;37034;47.886;-3.904;2022-07-30T11:47:43;28.30;63.80
51007;DHT22;37034;47.886;-3.904;2022-07-30T11:50:28;28.50;64.20
51007;DHT22;37034;47.886;-3.904;2022-07-30T11:53:00;28.60;62.80
51007;DHT22;37034;47.886;-3.904;2022-07-30T11:57:55;28.70;62.30
51007;DHT22;37034;47.886;-3.904;2022-07-30T12:00:21;28.60;63.30
51007;DHT22;37034;47.886;-3.904;2022-07-30T12:02:48;28.80;62.20
51007;DHT22;37034;47.886;-3.904;2022-07-30T12:05:15;28.80;63.20
51007;DHT22;37034;47.886;-3.904;2022-07-30T12:07:40;28.90;62.30
51007;DHT22;37034;47.886;-3.904;2022-07-30T12:10:19;28.80;63.40
51007;DHT22;37034;47.886;-3.904;2022-07-30T12:12:45;29.00;61.60
51007;DHT22;37034;47.886;-3.904;2022-07-30T12:15:31;29.00;61.90
51007;DHT22;37034;47.886;-3.904;2022-07-30T12:17:57;28.90;62.70
51007;DHT22;37034;47.886;-3.904;2022-07-30T12:20:24;28.90;62.50
51007;DHT22;37034;47.886;-3.904;2022-07-30T12:22:50;29.10;62.70
51007;DHT22;37034;47.886;-3.904;2022-07-30T12:25:15;29.30;61.50
51007;DHT22;37034;47.886;-3.904;2022-07-30T12:27:44;29.30;62.20
51007;DHT22;37034;47.886;-3.904;2022-07-30T12:30:10;29.50;61.50
51007;DHT22;37034;47.886;-3.904;2022-07-30T12:32:36;29.50;61.70
51007;DHT22;37034;47.886;-3.904;2022-07-30T12:35:02;29.50;61.10
51007;DHT22;37034;47.886;-3.904;2022-07-30T12:37:28;29.50;61.90
51007;DHT22;37034;47.886;-3.904;2022-07-30T12:40:13;29.60;62.70
51007;DHT22;37034;47.886;-3.904;2022-07-30T12:42:51;29.60;61.40
51007;DHT22;37034;47.886;-3.904;2022-07-30T12:45:28;29.40;60.50
51007;DHT22;37034;47.886;-3.904;2022-07-30T12:47:54;29.30;61.50
51007;DHT22;37034;47.886;-3.904;2022-07-30T12:50:20;29.40;61.00
51007;DHT22;37034;47.886;-3.904;2022-07-30T12:52:50;29.40;61.10
51007;DHT22;37034;47.886;-3.904;2022-07-30T12:55:17;29.40;61.40
51007;DHT22;37034;47.886;-3.904;2022-07-30T12:58:05;29.30;61.90
51007;DHT22;37034;47.886;-3.904;2022-07-30T13:03:23;29.40;61.20
51007;DHT22;37034;47.886;-3.904;2022-07-30T13:05:50;29.40;61.10
51007;DHT22;37034;47.886;-3.904;2022-07-30T13:08:16;29.30;61.20
51007;DHT22;37034;47.886;-3.904;2022-07-30T13:10:55;29.20;61.30
51007;DHT22;37034;47.886;-3.904;2022-07-30T13:13:21;29.20;61.20
51007;DHT22;37034;47.886;-3.904;2022-07-30T13:15:59;29.20;61.30
51007;DHT22;37034;47.886;-3.904;2022-07-30T13:18:26;29.20;61.70
51007;DHT22;37034;47.886;-3.904;2022-07-30T13:20:52;29.10;61.90
51007;DHT22;37034;47.886;-3.904;2022-07-30T13:23:18;29.20;62.40
51007;DHT22;37034;47.886;-3.904;2022-07-30T13:25:43;29.20;62.10
51007;DHT22;37034;47.886;-3.904;2022-07-30T13:28:09;29.30;62.20
51007;DHT22;37034;47.886;-3.904;2022-07-30T13:30:34;29.40;62.50
51007;DHT22;37034;47.886;-3.904;2022-07-30T13:33:00;29.50;61.70
51007;DHT22;37034;47.886;-3.904;2022-07-30T13:35:25;29.60;61.80
51007;DHT22;37034;47.886;-3.904;2022-07-30T13:37:52;29.40;61.60
51007;DHT22;37034;47.886;-3.904;2022-07-30T13:40:17;29.50;62.10
51007;DHT22;37034;47.886;-3.904;2022-07-30T13:42:43;29.60;61.00
51007;DHT22;37034;47.886;-3.904;2022-07-30T13:45:08;29.30;61.00
51007;DHT22;37034;47.886;-3.904;2022-07-30T13:47:34;29.00;61.40
51007;DHT22;37034;47.886;-3.904;2022-07-30T13:50:00;29.10;61.90
51007;DHT22;37034;47.886;-3.904;2022-07-30T13:52:25;29.30;61.90
51007;DHT22;37034;47.886;-3.904;2022-07-30T13:54:51;29.50;61.30
51007;DHT22;37034;47.886;-3.904;2022-07-30T13:57:18;29.70;61.60
51007;DHT22;37034;47.886;-3.904;2022-07-30T13:59:44;29.90;61.90
51007;DHT22;37034;47.886;-3.904;2022-07-30T14:02:09;30.10;61.60
51007;DHT22;37034;47.886;-3.904;2022-07-30T14:04:35;30.20;60.20
51007;DHT22;37034;47.886;-3.904;2022-07-30T14:07:01;30.20;60.60
51007;DHT22;37034;47.886;-3.904;2022-07-30T14:09:26;30.30;60.30
51007;DHT22;37034;47.886;-3.904;2022-07-30T14:11:52;30.20;60.10
51007;DHT22;37034;47.886;-3.904;2022-07-30T14:14:18;29.80;60.50
51007;DHT22;37034;47.886;-3.904;2022-07-30T14:16:43;29.80;60.80
51007;DHT22;37034;47.886;-3.904;2022-07-30T14:19:12;29.80;60.80
51007;DHT22;37034;47.886;-3.904;2022-07-30T14:21:39;30.00;60.70
51007;DHT22;37034;47.886;-3.904;2022-07-30T14:24:06;30.00;60.40
51007;DHT22;37034;47.886;-3.904;2022-07-30T14:26:32;29.90;60.90
51007;DHT22;37034;47.886;-3.904;2022-07-30T14:28:57;29.80;60.80
51007;DHT22;37034;47.886;-3.904;2022-07-30T14:31:23;29.80;61.20
51007;DHT22;37034;47.886;-3.904;2022-07-30T14:33:48;29.80;61.00
51007;DHT22;37034;47.886;-3.904;2022-07-30T14:36:14;29.70;61.30
51007;DHT22;37034;47.886;-3.904;2022-07-30T14:38:40;29.80;60.90
51007;DHT22;37034;47.886;-3.904;2022-07-30T14:41:05;29.90;60.60
51007;DHT22;37034;47.886;-3.904;2022-07-30T14:43:31;29.90;61.50
51007;DHT22;37034;47.886;-3.904;2022-07-30T14:45:57;29.70;61.40
51007;DHT22;37034;47.886;-3.904;2022-07-30T14:48:22;29.30;60.90
51007;DHT22;37034;47.886;-3.904;2022-07-30T14:50:48;29.10;61.80
51007;DHT22;37034;47.886;-3.904;2022-07-30T14:53:14;29.10;61.70
51007;DHT22;37034;47.886;-3.904;2022-07-30T14:55:41;29.30;62.10
51007;DHT22;37034;47.886;-3.904;2022-07-30T14:58:06;29.10;62.30
51007;DHT22;37034;47.886;-3.904;2022-07-30T15:00:32;28.90;62.60
51007;DHT22;37034;47.886;-3.904;2022-07-30T15:02:58;28.90;63.30
51007;DHT22;37034;47.886;-3.904;2022-07-30T15:05:23;29.20;63.40
51007;DHT22;37034;47.886;-3.904;2022-07-30T15:07:49;29.40;63.00
51007;DHT22;37034;47.886;-3.904;2022-07-30T15:10:15;29.20;62.80
51007;DHT22;37034;47.886;-3.904;2022-07-30T15:12:40;28.90;63.10
51007;DHT22;37034;47.886;-3.904;2022-07-30T15:15:06;29.00;63.70
51007;DHT22;37034;47.886;-3.904;2022-07-30T15:17:33;29.20;63.20
51007;DHT22;37034;47.886;-3.904;2022-07-30T15:19:59;29.00;63.60
51007;DHT22;37034;47.886;-3.904;2022-07-30T15:22:26;29.00;64.00
51007;DHT22;37034;47.886;-3.904;2022-07-30T15:24:51;29.20;64.20
51007;DHT22;37034;47.886;-3.904;2022-07-30T15:27:17;29.50;62.90
51007;DHT22;37034;47.886;-3.904;2022-07-30T15:29:42;29.50;63.00
51007;DHT22;37034;47.886;-3.904;2022-07-30T15:32:08;29.60;63.10
51007;DHT22;37034;47.886;-3.904;2022-07-30T15:34:34;29.40;62.80
51007;DHT22;37034;47.886;-3.904;2022-07-30T15:37:01;29.40;63.40
51007;DHT22;37034;47.886;-3.904;2022-07-30T15:39:27;29.40;62.90
51007;DHT22;37034;47.886;-3.904;2022-07-30T15:41:55;29.20;63.00
51007;DHT22;37034;47.886;-3.904;2022-07-30T15:44:21;29.30;62.80
51007;DHT22;37034;47.886;-3.904;2022-07-30T15:46:46;29.10;62.70
51007;DHT22;37034;47.886;-3.904;2022-07-30T15:49:12;28.70;63.10
51007;DHT22;37034;47.886;-3.904;2022-07-30T15:51:38;28.50;63.70
51007;DHT22;37034;47.886;-3.904;2022-07-30T15:54:12;28.70;63.90
51007;DHT22;37034;47.886;-3.904;2022-07-30T15:56:37;28.50;63.40
51007;DHT22;37034;47.886;-3.904;2022-07-30T15:59:03;28.20;64.30
51007;DHT22;37034;47.886;-3.904;2022-07-30T16:01:28;28.00;64.70